createdAt,value
2022-10-13T00:00:58.366Z,68.58
2022-10-13T00:02:10.041Z,68.55
2022-10-13T00:03:13.173Z,68.53
2022-10-13T00:04:16.337Z,68.55
2022-10-13T00:05:19.220Z,68.53
2022-10-13T00:06:24.119Z,68.54
2022-10-13T00:07:27.030Z,68.54
2022-10-13T00:08:30.278Z,68.54
2022-10-13T00:09:33.835Z,68.55
2022-10-13T00:10:37.836Z,68.57
2022-10-13T00:11:42.622Z,68.59
2022-10-13T00:12:45.479Z,68.63
2022-10-13T00:13:49.708Z,68.63
2022-10-13T00:14:52.768Z,68.65
2022-10-13T00:15:55.602Z,68.64
2022-10-13T00:16:58.821Z,68.58
2022-10-13T00:18:01.698Z,68.61
2022-10-13T00:19:04.860Z,68.62
2022-10-13T00:20:08.807Z,68.62
2022-10-13T00:21:15.977Z,68.63
2022-10-13T00:22:19.450Z,68.65
2022-10-13T00:23:22.666Z,68.68
2022-10-13T00:24:25.603Z,68.67
2022-10-13T00:25:28.443Z,68.64
2022-10-13T00:26:31.430Z,68.60
2022-10-13T00:27:34.412Z,68.51
2022-10-13T00:28:37.804Z,68.38
2022-10-13T00:29:40.995Z,68.27
2022-10-13T00:30:43.900Z,68.23
2022-10-13T00:31:46.932Z,68.10
2022-10-13T00:32:49.703Z,67.96
2022-10-13T00:33:53.085Z,67.90
2022-10-13T00:34:57.800Z,67.71
2022-10-13T00:36:00.759Z,67.40
2022-10-13T00:37:04.277Z,67.44
2022-10-13T00:38:07.189Z,67.45
2022-10-13T00:39:10.099Z,67.50
2022-10-13T00:40:13.590Z,67.53
2022-10-13T00:41:16.817Z,67.56
2022-10-13T00:42:20.135Z,67.62
2022-10-13T00:43:28.310Z,67.60
2022-10-13T00:44:50.724Z,67.70
2022-10-13T00:45:54.573Z,67.75
2022-10-13T00:46:57.480Z,67.76
2022-10-13T00:48:01.950Z,67.67
2022-10-13T00:49:06.880Z,67.70
2022-10-13T00:50:11.802Z,67.43
2022-10-13T00:51:16.308Z,66.63
2022-10-13T00:52:20.787Z,67.35
2022-10-13T00:53:27.096Z,67.64
2022-10-13T00:54:29.898Z,67.86
2022-10-13T00:55:35.090Z,67.93
2022-10-13T00:56:38.714Z,67.97
2022-10-13T00:57:43.998Z,67.97
2022-10-13T00:58:47.898Z,67.94
2022-10-13T00:59:51.887Z,67.94
2022-10-13T01:00:55.015Z,67.93
2022-10-13T01:01:59.422Z,67.93
2022-10-13T01:03:02.810Z,67.97
2022-10-13T01:04:05.695Z,68.05
2022-10-13T01:05:08.877Z,68.13
2022-10-13T01:06:12.876Z,68.19
2022-10-13T01:07:17.707Z,68.24
2022-10-13T01:08:21.899Z,68.27
2022-10-13T01:09:24.793Z,68.32
2022-10-13T01:10:33.627Z,68.29
2022-10-13T01:11:55.442Z,68.12
2022-10-13T01:13:06.972Z,67.89
2022-10-13T01:14:21.831Z,67.75
2022-10-13T01:15:30.252Z,67.83
2022-10-13T01:16:33.120Z,67.86
2022-10-13T01:17:55.189Z,67.90
2022-10-13T01:19:12.539Z,67.94
2022-10-13T01:20:18.254Z,67.88
2022-10-13T01:21:24.029Z,67.83
2022-10-13T01:22:45.609Z,67.82
2022-10-13T01:23:55.761Z,67.84
2022-10-13T01:25:04.827Z,67.83
2022-10-13T01:26:07.668Z,67.90
2022-10-13T01:27:20.152Z,67.96
2022-10-13T01:28:26.122Z,68.01
2022-10-13T01:29:29.467Z,67.96
2022-10-13T01:30:35.559Z,67.84
2022-10-13T01:32:01.164Z,67.74
2022-10-13T01:33:20.509Z,67.71
2022-10-13T01:34:27.931Z,67.69
2022-10-13T01:35:55.960Z,67.68
2022-10-13T01:36:58.769Z,67.65
2022-10-13T01:38:24.129Z,67.64
2022-10-13T01:39:26.935Z,67.63
2022-10-13T01:40:38.738Z,67.61
2022-10-13T01:41:44.435Z,67.52
2022-10-13T01:42:47.285Z,67.53
2022-10-13T01:43:53.467Z,67.58
2022-10-13T01:45:00.314Z,67.63
2022-10-13T01:46:07.580Z,67.60
2022-10-13T01:47:12.143Z,67.48
2022-10-13T01:48:16.623Z,67.27
2022-10-13T01:49:27.760Z,66.93
2022-10-13T01:50:32.723Z,65.76
2022-10-13T01:51:36.700Z,64.97
2022-10-13T01:52:40.785Z,65.38
2022-10-13T01:53:45.251Z,66.05
2022-10-13T01:54:49.124Z,66.58
2022-10-13T01:55:52.804Z,66.95
2022-10-13T01:56:56.468Z,67.19
2022-10-13T01:57:59.650Z,67.32
2022-10-13T01:59:05.051Z,67.43
2022-10-13T02:00:09.846Z,67.48
2022-10-13T02:01:34.795Z,67.59
2022-10-13T02:03:03.953Z,67.69
2022-10-13T02:04:14.279Z,67.84
2022-10-13T02:05:29.330Z,67.94
2022-10-13T02:06:34.890Z,68.08
2022-10-13T02:07:55.093Z,68.13
2022-10-13T02:09:04.952Z,68.12
2022-10-13T02:10:14.919Z,68.08
2022-10-13T02:11:21.549Z,68.09
2022-10-13T02:12:33.539Z,68.10
2022-10-13T02:13:36.961Z,68.10
2022-10-13T02:14:44.498Z,68.13
2022-10-13T02:15:49.324Z,68.15
2022-10-13T02:16:53.811Z,68.14
2022-10-13T02:17:56.647Z,67.86
2022-10-13T02:19:02.244Z,68.04
2022-10-13T02:20:06.275Z,68.08
2022-10-13T02:21:10.571Z,68.11
2022-10-13T02:22:14.900Z,68.16
2022-10-13T02:23:18.645Z,68.19
2022-10-13T02:24:21.599Z,68.20
2022-10-13T02:25:25.242Z,67.85
2022-10-13T02:26:29.687Z,68.13
2022-10-13T02:27:37.002Z,68.15
2022-10-13T02:28:40.199Z,68.08
2022-10-13T02:29:50.495Z,68.16
2022-10-13T02:31:49.973Z,68.20
2022-10-13T02:32:53.214Z,68.24
2022-10-13T02:33:56.413Z,68.30
2022-10-13T02:34:59.647Z,68.34
2022-10-13T02:36:02.494Z,68.26
2022-10-13T02:37:05.308Z,68.16
2022-10-13T02:38:08.186Z,68.19
2022-10-13T02:39:11.208Z,68.25
2022-10-13T02:40:14.029Z,68.35
2022-10-13T02:41:16.928Z,68.48
2022-10-13T02:42:20.053Z,68.61
2022-10-13T02:43:23.093Z,68.70
2022-10-13T02:44:26.147Z,68.73
2022-10-13T02:45:28.992Z,68.68
2022-10-13T02:46:32.098Z,68.70
2022-10-13T02:47:35.105Z,68.76
2022-10-13T02:48:38.586Z,68.83
2022-10-13T02:49:41.542Z,68.98
2022-10-13T02:50:44.372Z,69.04
2022-10-13T02:51:47.159Z,69.04
2022-10-13T02:52:50.062Z,69.05
2022-10-13T02:53:53.111Z,69.10
2022-10-13T02:54:56.119Z,69.14
2022-10-13T02:55:58.901Z,69.13
2022-10-13T02:57:03.030Z,69.14
2022-10-13T02:58:06.013Z,69.17
2022-10-13T02:59:09.117Z,69.16
2022-10-13T03:00:12.659Z,69.13
2022-10-13T03:01:16.014Z,69.10
2022-10-13T03:02:19.467Z,69.09
2022-10-13T03:03:22.625Z,69.06
2022-10-13T03:04:27.270Z,68.97
2022-10-13T03:05:31.085Z,68.89
2022-10-13T03:06:34.206Z,68.82
2022-10-13T03:07:36.989Z,68.80
2022-10-13T03:08:39.782Z,68.80
2022-10-13T03:09:42.582Z,68.81
2022-10-13T03:10:45.536Z,68.79
2022-10-13T03:11:48.349Z,68.81
2022-10-13T03:12:51.175Z,68.80
2022-10-13T03:13:54.265Z,68.80
2022-10-13T03:14:57.486Z,68.64
2022-10-13T03:16:00.343Z,67.75
2022-10-13T03:17:03.633Z,68.50
2022-10-13T03:18:06.534Z,68.59
2022-10-13T03:19:09.791Z,68.59
2022-10-13T03:20:12.925Z,68.59
2022-10-13T03:21:16.441Z,68.69
2022-10-13T03:22:19.673Z,68.80
2022-10-13T03:23:22.679Z,68.85
2022-10-13T03:24:25.460Z,68.86
2022-10-13T03:25:28.399Z,68.85
2022-10-13T03:26:32.604Z,68.88
2022-10-13T03:27:36.097Z,68.91
2022-10-13T03:28:38.998Z,68.96
2022-10-13T03:29:41.903Z,69.02
2022-10-13T03:30:44.794Z,69.04
2022-10-13T03:31:47.712Z,69.03
2022-10-13T03:32:50.596Z,69.01
2022-10-13T03:33:53.626Z,69.07
2022-10-13T03:34:56.506Z,69.15
2022-10-13T03:36:04.863Z,69.26
2022-10-13T03:37:07.799Z,69.27
2022-10-13T03:38:17.225Z,69.23
2022-10-13T03:39:20.069Z,69.25
2022-10-13T03:40:22.944Z,69.27
2022-10-13T03:41:26.023Z,69.24
2022-10-13T03:42:29.004Z,69.13
2022-10-13T03:43:32.215Z,69.13
2022-10-13T03:44:35.123Z,69.16
2022-10-13T03:45:37.951Z,69.16
2022-10-13T03:46:40.898Z,69.15
2022-10-13T03:47:44.645Z,69.19
2022-10-13T03:48:47.746Z,69.21
2022-10-13T03:49:50.660Z,69.21
2022-10-13T03:50:53.685Z,69.21
2022-10-13T03:51:56.804Z,69.23
2022-10-13T03:52:59.796Z,69.26
2022-10-13T03:54:02.721Z,69.29
2022-10-13T03:55:05.719Z,69.28
2022-10-13T03:56:12.886Z,69.26
2022-10-13T03:57:18.450Z,69.25
2022-10-13T03:58:22.209Z,69.30
2022-10-13T03:59:26.109Z,69.33
2022-10-13T04:00:29.008Z,69.34
2022-10-13T04:01:32.858Z,69.32
2022-10-13T04:02:35.924Z,69.34
2022-10-13T04:03:39.064Z,69.38
2022-10-13T04:04:41.893Z,69.44
2022-10-13T04:05:44.752Z,69.49
2022-10-13T04:06:47.592Z,69.52
2022-10-13T04:07:50.523Z,69.53
2022-10-13T04:08:55.115Z,69.54
2022-10-13T04:09:58.005Z,69.59
2022-10-13T04:11:02.033Z,69.68
2022-10-13T04:12:05.081Z,69.78
2022-10-13T04:13:07.945Z,69.84
2022-10-13T04:14:13.492Z,69.86
2022-10-13T04:15:16.355Z,69.93
2022-10-13T04:16:20.940Z,69.99
2022-10-13T04:17:23.999Z,69.95
2022-10-13T04:18:26.982Z,70.07
2022-10-13T04:19:29.993Z,70.11
2022-10-13T04:20:35.941Z,70.10
2022-10-13T04:21:38.748Z,70.09
2022-10-13T04:22:41.710Z,70.04
2022-10-13T04:23:44.582Z,70.04
2022-10-13T04:24:47.548Z,70.10
2022-10-13T04:25:50.453Z,70.05
2022-10-13T04:26:53.352Z,70.06
2022-10-13T04:27:56.133Z,70.04
2022-10-13T04:28:59.704Z,70.04
2022-10-13T04:30:02.817Z,70.06
2022-10-13T04:31:05.684Z,70.07
2022-10-13T04:32:09.866Z,70.11
2022-10-13T04:33:12.769Z,70.11
2022-10-13T04:34:15.777Z,70.12
2022-10-13T04:35:18.950Z,70.14
2022-10-13T04:36:21.923Z,70.19
2022-10-13T04:37:25.929Z,70.19
2022-10-13T04:38:28.833Z,70.19
2022-10-13T04:39:32.185Z,70.16
2022-10-13T04:40:35.177Z,70.17
2022-10-13T04:41:37.919Z,70.21
2022-10-13T04:42:40.899Z,70.16
2022-10-13T04:43:43.882Z,70.09
2022-10-13T04:44:46.854Z,70.03
2022-10-13T04:45:50.761Z,69.99
2022-10-13T04:46:53.557Z,69.89
2022-10-13T04:47:56.360Z,69.81
2022-10-13T04:48:59.350Z,69.73
2022-10-13T04:50:08.421Z,69.64
2022-10-13T04:51:16.564Z,69.58
2022-10-13T04:52:19.708Z,69.49
2022-10-13T04:53:23.748Z,69.41
2022-10-13T04:54:26.677Z,69.36
2022-10-13T04:55:29.534Z,69.35
2022-10-13T04:56:32.690Z,69.36
2022-10-13T04:57:37.780Z,69.37
2022-10-13T04:58:41.096Z,69.37
2022-10-13T04:59:44.213Z,69.36
2022-10-13T05:00:47.615Z,69.41
2022-10-13T05:01:50.497Z,69.41
2022-10-13T05:02:53.353Z,69.38
2022-10-13T05:04:01.000Z,69.40
2022-10-13T05:05:04.333Z,69.42
2022-10-13T05:06:13.750Z,69.41
2022-10-13T05:07:18.350Z,69.44
2022-10-13T05:08:21.851Z,69.46
2022-10-13T05:09:24.835Z,69.47
2022-10-13T05:10:32.533Z,69.48
2022-10-13T05:11:37.834Z,69.47
2022-10-13T05:12:41.059Z,69.46
2022-10-13T05:13:43.908Z,69.50
2022-10-13T05:14:46.729Z,69.53
2022-10-13T05:15:49.696Z,69.55
2022-10-13T05:16:52.955Z,69.57
2022-10-13T05:17:55.939Z,69.58
2022-10-13T05:18:58.790Z,69.61
2022-10-13T05:20:01.585Z,69.67
2022-10-13T05:21:08.842Z,69.72
2022-10-13T05:22:13.422Z,69.74
2022-10-13T05:23:17.974Z,69.71
2022-10-13T05:24:30.837Z,69.67
2022-10-13T05:25:36.309Z,69.63
2022-10-13T05:26:39.588Z,69.61
2022-10-13T05:27:42.645Z,69.61
2022-10-13T05:28:45.843Z,69.60
2022-10-13T05:29:48.700Z,69.59
2022-10-13T05:30:51.858Z,69.55
2022-10-13T05:31:54.783Z,69.51
2022-10-13T05:32:58.286Z,69.48
2022-10-13T05:34:01.251Z,69.45
2022-10-13T05:35:05.358Z,69.43
2022-10-13T05:36:12.932Z,69.37
2022-10-13T05:37:17.205Z,69.31
2022-10-13T05:38:25.193Z,69.27
2022-10-13T05:39:29.826Z,69.21
2022-10-13T05:40:33.772Z,69.16
2022-10-13T05:41:37.063Z,69.07
2022-10-13T05:42:41.931Z,69.04
2022-10-13T05:43:46.262Z,68.96
2022-10-13T05:44:49.209Z,69.03
2022-10-13T05:45:52.207Z,69.05
2022-10-13T05:46:57.184Z,69.06
2022-10-13T05:48:00.031Z,69.09
2022-10-13T05:49:04.515Z,69.12
2022-10-13T05:50:08.450Z,69.12
2022-10-13T05:51:13.693Z,69.11
2022-10-13T05:52:16.677Z,69.12
2022-10-13T05:53:20.083Z,69.11
2022-10-13T05:54:24.770Z,69.11
2022-10-13T05:55:27.778Z,69.00
2022-10-13T05:56:32.502Z,69.06
2022-10-13T05:57:41.139Z,69.10
2022-10-13T05:58:46.930Z,69.13
2022-10-13T05:59:55.260Z,69.16
2022-10-13T06:00:59.379Z,69.21
2022-10-13T06:02:03.088Z,69.21
2022-10-13T06:03:14.868Z,69.24
2022-10-13T06:04:21.943Z,69.23
2022-10-13T06:05:26.353Z,69.25
2022-10-13T06:06:31.740Z,69.25
2022-10-13T06:07:34.853Z,69.30
2022-10-13T06:08:38.768Z,69.30
2022-10-13T06:09:42.050Z,69.35
2022-10-13T06:10:45.533Z,69.40
2022-10-13T06:11:48.705Z,69.44
2022-10-13T06:12:51.631Z,69.53
2022-10-13T06:13:54.465Z,69.69
2022-10-13T06:14:57.336Z,69.69
2022-10-13T06:16:00.294Z,69.83
2022-10-13T06:17:03.444Z,69.92
2022-10-13T06:18:09.229Z,69.99
2022-10-13T06:19:12.167Z,70.09
2022-10-13T06:20:15.149Z,70.30
2022-10-13T06:21:17.964Z,70.37
2022-10-13T06:22:22.315Z,70.42
2022-10-13T06:23:25.462Z,70.51
2022-10-13T06:24:28.333Z,70.57
2022-10-13T06:25:31.410Z,70.75
2022-10-13T06:26:34.235Z,70.75
2022-10-13T06:27:37.419Z,70.74
2022-10-13T06:28:40.271Z,70.70
2022-10-13T06:29:43.163Z,70.66
2022-10-13T06:30:53.758Z,70.46
2022-10-13T06:31:58.217Z,70.55
2022-10-13T06:33:01.346Z,70.67
2022-10-13T06:34:04.217Z,70.69
2022-10-13T06:35:07.331Z,70.73
2022-10-13T06:36:10.419Z,70.71
2022-10-13T06:37:13.334Z,70.75
2022-10-13T06:38:16.533Z,70.78
2022-10-13T06:39:23.983Z,70.88
2022-10-13T06:40:26.863Z,70.87
2022-10-13T06:41:29.739Z,70.77
2022-10-13T06:42:34.810Z,70.99
2022-10-13T06:43:45.156Z,71.02
2022-10-13T06:44:48.024Z,70.65
2022-10-13T06:45:50.852Z,70.56
2022-10-13T06:46:53.713Z,70.79
2022-10-13T06:47:56.505Z,69.96
2022-10-13T06:48:59.666Z,68.90
2022-10-13T06:50:03.157Z,67.82
2022-10-13T06:51:07.424Z,67.13
2022-10-13T06:52:10.276Z,66.70
2022-10-13T06:53:13.629Z,66.57
2022-10-13T06:54:17.569Z,66.89
2022-10-13T06:55:20.354Z,66.77
2022-10-13T06:56:23.390Z,66.32
2022-10-13T06:57:26.210Z,66.65
2022-10-13T06:58:29.806Z,66.38
2022-10-13T06:59:32.829Z,66.21
2022-10-13T07:00:35.806Z,66.02
2022-10-13T07:01:41.607Z,66.00
2022-10-13T07:02:52.011Z,66.21
2022-10-13T07:03:55.003Z,66.25
2022-10-13T07:04:58.080Z,65.86
2022-10-13T07:06:01.786Z,65.84
2022-10-13T07:07:04.645Z,66.14
2022-10-13T07:08:07.530Z,66.37
2022-10-13T07:09:10.722Z,66.01
2022-10-13T07:10:13.971Z,65.74
2022-10-13T07:11:17.312Z,65.75
2022-10-13T07:12:24.474Z,65.56
2022-10-13T07:13:27.502Z,65.52
2022-10-13T07:14:30.519Z,65.61
2022-10-13T07:15:34.031Z,65.78
2022-10-13T07:16:36.840Z,65.95
2022-10-13T07:17:40.975Z,66.12
2022-10-13T07:18:44.149Z,65.56
2022-10-13T07:19:48.899Z,65.42
2022-10-13T07:20:51.979Z,65.64
2022-10-13T07:21:54.892Z,65.71
2022-10-13T07:23:00.073Z,65.68
2022-10-13T07:24:04.032Z,65.28
2022-10-13T07:25:07.181Z,64.95
2022-10-13T07:26:11.368Z,65.03
2022-10-13T07:27:14.410Z,65.11
2022-10-13T07:28:17.734Z,65.13
2022-10-13T07:29:21.053Z,64.90
2022-10-13T07:30:23.913Z,64.80
2022-10-13T07:31:27.117Z,64.85
2022-10-13T07:32:29.991Z,64.97
2022-10-13T07:33:32.783Z,65.02
2022-10-13T07:34:35.799Z,64.99
2022-10-13T07:35:38.901Z,64.90
2022-10-13T07:36:41.986Z,64.67
2022-10-13T07:37:44.872Z,64.36
2022-10-13T07:38:47.805Z,64.83
2022-10-13T07:39:51.605Z,64.82
2022-10-13T07:40:54.542Z,64.48
2022-10-13T07:41:57.868Z,63.80
2022-10-13T07:43:01.665Z,64.22
2022-10-13T07:44:04.576Z,64.38
2022-10-13T07:45:07.713Z,64.65
2022-10-13T07:46:11.991Z,64.81
2022-10-13T07:47:15.039Z,64.58
2022-10-13T07:48:18.338Z,63.83
2022-10-13T07:49:21.226Z,63.36
2022-10-13T07:50:24.092Z,62.67
2022-10-13T07:51:26.966Z,62.10
2022-10-13T07:52:30.110Z,61.63
2022-10-13T07:53:35.361Z,61.11
2022-10-13T07:54:38.294Z,61.78
2022-10-13T07:55:41.332Z,61.72
2022-10-13T07:56:44.234Z,61.68
2022-10-13T07:57:47.692Z,61.12
2022-10-13T07:58:52.566Z,60.95
2022-10-13T07:59:55.498Z,61.01
2022-10-13T08:00:59.558Z,61.06
2022-10-13T08:02:02.750Z,61.23
2022-10-13T08:03:06.022Z,61.53
2022-10-13T08:04:09.013Z,61.61
2022-10-13T08:05:11.842Z,61.66
2022-10-13T08:06:14.746Z,61.35
2022-10-13T08:07:18.157Z,61.24
2022-10-13T08:08:22.038Z,61.52
2022-10-13T08:09:25.589Z,61.57
2022-10-13T08:10:29.314Z,61.72
2022-10-13T08:11:32.387Z,61.73
2022-10-13T08:12:35.989Z,61.82
2022-10-13T08:13:39.206Z,61.51
2022-10-13T08:14:52.192Z,60.37
2022-10-13T08:15:55.017Z,60.45
2022-10-13T08:16:59.433Z,60.50
2022-10-13T08:18:02.409Z,60.60
2022-10-13T08:19:05.380Z,60.13
2022-10-13T08:20:08.564Z,59.93
2022-10-13T08:22:39.643Z,59.72
2022-10-13T08:23:42.688Z,58.70
2022-10-13T08:24:45.790Z,58.11
2022-10-13T08:25:48.766Z,58.02
2022-10-13T08:26:51.721Z,58.56
2022-10-13T08:28:00.329Z,59.19
2022-10-13T08:29:20.694Z,58.33
2022-10-13T08:30:24.994Z,58.21
2022-10-13T08:31:28.275Z,58.26
2022-10-13T08:32:31.628Z,58.79
2022-10-13T08:33:34.687Z,58.77
2022-10-13T08:34:38.096Z,59.16
2022-10-13T08:35:42.448Z,59.11
2022-10-13T08:36:45.308Z,59.05
2022-10-13T08:37:48.274Z,59.42
2022-10-13T08:38:51.078Z,59.25
2022-10-13T08:39:55.411Z,59.46
2022-10-13T08:40:58.438Z,59.64
2022-10-13T08:42:01.263Z,59.88
2022-10-13T08:43:07.535Z,59.55
2022-10-13T08:45:02.598Z,59.96
2022-10-13T08:45:42.426Z,60.25
2022-10-13T08:47:04.421Z,59.62
2022-10-13T08:48:10.806Z,59.14
2022-10-13T08:49:15.114Z,58.90
2022-10-13T08:50:19.375Z,58.99
2022-10-13T08:51:22.373Z,58.92
2022-10-13T08:52:26.903Z,59.35
2022-10-13T08:53:32.975Z,59.36
2022-10-13T08:54:36.166Z,58.49
2022-10-13T08:55:43.709Z,60.30
2022-10-13T08:56:50.940Z,59.36
2022-10-13T08:57:54.049Z,58.93
2022-10-13T08:59:04.685Z,58.77
2022-10-13T09:00:11.101Z,58.91
2022-10-13T09:01:17.145Z,59.63
2022-10-13T09:02:27.255Z,59.23
2022-10-13T09:03:39.196Z,60.20
2022-10-13T09:04:44.151Z,58.79
2022-10-13T09:05:55.026Z,59.09
2022-10-13T09:07:02.269Z,59.74
2022-10-13T09:08:13.725Z,59.56
2022-10-13T09:09:16.870Z,58.38
2022-10-13T09:10:20.454Z,57.90
2022-10-13T09:11:23.942Z,57.63
2022-10-13T09:12:26.745Z,57.85
2022-10-13T09:13:29.688Z,58.45
2022-10-13T09:14:34.578Z,57.99
2022-10-13T09:15:44.774Z,57.70
2022-10-13T09:16:49.188Z,57.20
2022-10-13T09:18:08.470Z,57.48
2022-10-13T09:19:23.338Z,58.87
2022-10-13T09:20:29.586Z,58.64
2022-10-13T09:21:32.399Z,57.77
2022-10-13T09:22:38.053Z,57.58
2022-10-13T09:23:42.012Z,58.19
2022-10-13T09:24:45.236Z,57.66
2022-10-13T09:25:50.171Z,57.58
2022-10-13T09:27:05.216Z,59.16
2022-10-13T09:28:15.796Z,58.02
2022-10-13T09:29:27.660Z,57.28
2022-10-13T09:30:30.758Z,56.99
2022-10-13T09:31:35.588Z,57.34
2022-10-13T09:32:40.785Z,57.22
2022-10-13T09:33:44.093Z,56.73
2022-10-13T09:34:48.087Z,57.46
2022-10-13T09:35:57.305Z,56.55
2022-10-13T09:37:05.283Z,56.05
2022-10-13T09:38:14.384Z,56.18
2022-10-13T09:39:19.555Z,55.71
2022-10-13T09:40:22.490Z,56.03
2022-10-13T09:41:25.321Z,56.15
2022-10-13T09:42:30.265Z,55.46
2022-10-13T09:43:41.178Z,54.68
2022-10-13T09:44:44.045Z,54.82
2022-10-13T09:45:47.112Z,54.80
2022-10-13T09:47:01.056Z,55.20
2022-10-13T09:48:06.580Z,55.72
2022-10-13T09:49:28.217Z,55.90
2022-10-13T09:50:32.833Z,54.95
2022-10-13T09:51:40.834Z,54.96
2022-10-13T09:53:17.210Z,55.79
2022-10-13T09:54:50.047Z,54.93
2022-10-13T09:56:08.089Z,54.71
2022-10-13T09:57:10.991Z,54.40
2022-10-13T09:58:24.982Z,53.86
2022-10-13T09:59:33.121Z,54.32
2022-10-13T10:00:37.149Z,54.37
2022-10-13T10:01:42.049Z,54.77
2022-10-13T10:02:56.279Z,55.01
2022-10-13T10:04:00.409Z,55.72
2022-10-13T10:05:06.541Z,54.63
2022-10-13T10:06:12.342Z,54.50
2022-10-13T10:07:21.840Z,54.48
2022-10-13T10:08:33.967Z,54.56
2022-10-13T10:09:46.398Z,55.32
2022-10-13T10:10:49.710Z,55.39
2022-10-13T10:11:53.443Z,55.21
2022-10-13T10:12:56.869Z,55.14
2022-10-13T10:14:02.550Z,55.23
2022-10-13T10:15:16.139Z,56.28
2022-10-13T10:16:35.785Z,55.00
2022-10-13T10:17:43.806Z,53.84
2022-10-13T10:18:58.603Z,53.11
2022-10-13T10:20:14.111Z,52.89
2022-10-13T10:21:36.346Z,53.14
2022-10-13T10:22:45.369Z,53.30
2022-10-13T10:24:03.951Z,52.87
2022-10-13T10:25:10.117Z,52.70
2022-10-13T10:26:20.634Z,52.81
2022-10-13T10:27:41.343Z,52.73
2022-10-13T10:28:46.678Z,52.75
2022-10-13T10:30:01.855Z,52.44
2022-10-13T10:31:13.944Z,51.61
2022-10-13T10:32:31.658Z,51.19
2022-10-13T10:33:48.050Z,51.24
2022-10-13T10:34:56.369Z,51.06
2022-10-13T10:36:04.048Z,51.22
2022-10-13T10:37:13.007Z,51.87
2022-10-13T10:38:18.798Z,51.61
2022-10-13T10:39:36.794Z,51.35
2022-10-13T10:40:45.660Z,51.23
2022-10-13T10:41:54.444Z,51.12
2022-10-13T10:43:18.219Z,51.98
2022-10-13T10:44:25.093Z,52.05
2022-10-13T10:45:31.432Z,51.80
2022-10-13T10:46:40.933Z,51.58
2022-10-13T10:47:46.006Z,51.04
2022-10-13T10:48:53.819Z,51.23
2022-10-13T10:50:05.692Z,51.19
2022-10-13T10:51:10.016Z,50.28
2022-10-13T10:52:22.284Z,50.99
2022-10-13T10:53:35.346Z,50.15
2022-10-13T10:54:54.334Z,50.00
2022-10-13T10:56:04.315Z,50.63
2022-10-13T10:57:16.296Z,50.76
2022-10-13T10:58:22.507Z,50.33
2022-10-13T10:59:37.057Z,50.08
2022-10-13T11:00:45.618Z,50.44
2022-10-13T11:01:48.518Z,50.09
2022-10-13T11:03:05.555Z,49.73
2022-10-13T11:04:24.672Z,49.50
2022-10-13T11:05:46.055Z,49.81
2022-10-13T11:06:49.191Z,49.91
2022-10-13T11:07:52.170Z,49.40
2022-10-13T11:08:55.620Z,49.70
2022-10-13T11:10:21.591Z,49.11
2022-10-13T11:11:36.399Z,49.02
2022-10-13T11:12:53.451Z,49.29
2022-10-13T11:14:00.753Z,49.38
2022-10-13T11:15:13.016Z,49.81
2022-10-13T11:16:32.853Z,50.05
2022-10-13T11:17:37.999Z,49.54
2022-10-13T11:19:07.426Z,49.31
2022-10-13T11:20:19.937Z,49.28
2022-10-13T11:21:22.957Z,49.16
2022-10-13T11:22:30.136Z,47.52
2022-10-13T11:23:34.048Z,47.10
2022-10-13T11:24:38.966Z,45.59
2022-10-13T11:25:46.369Z,45.63
2022-10-13T11:26:51.349Z,45.33
2022-10-13T11:27:54.655Z,44.69
2022-10-13T11:28:58.581Z,44.21
2022-10-13T11:30:02.533Z,45.48
2022-10-13T11:31:15.037Z,45.75
2022-10-13T11:32:25.720Z,44.49
2022-10-13T11:33:31.679Z,44.87
2022-10-13T11:34:34.534Z,45.65
2022-10-13T11:35:37.493Z,44.89
2022-10-13T11:36:54.793Z,44.96
2022-10-13T11:38:06.891Z,45.26
2022-10-13T11:40:44.867Z,45.02
2022-10-13T11:41:59.919Z,45.20
2022-10-13T11:43:26.442Z,44.58
2022-10-13T11:44:46.138Z,44.92
2022-10-13T11:46:12.173Z,45.14
2022-10-13T11:47:35.186Z,44.88
2022-10-13T11:48:38.092Z,44.50
2022-10-13T11:49:56.328Z,44.64
2022-10-13T11:51:09.497Z,45.30
2022-10-13T11:52:19.146Z,45.59
2022-10-13T11:53:33.324Z,44.55
2022-10-13T11:54:36.584Z,45.33
2022-10-13T11:55:48.786Z,44.09
2022-10-13T11:56:53.363Z,44.43
2022-10-13T11:58:16.233Z,45.01
2022-10-13T11:59:22.474Z,44.93
2022-10-13T12:00:25.358Z,45.88
2022-10-13T12:01:28.435Z,44.95
2022-10-13T12:02:31.539Z,44.17
2022-10-13T12:03:39.335Z,45.03
2022-10-13T12:05:19.288Z,44.39
2022-10-13T12:06:35.804Z,43.35
2022-10-13T12:07:41.227Z,43.39
2022-10-13T12:08:51.868Z,43.62
2022-10-13T12:09:57.083Z,43.61
2022-10-13T12:11:02.960Z,42.56
2022-10-13T12:12:16.323Z,42.94
2022-10-13T12:13:20.867Z,44.11
2022-10-13T12:14:31.952Z,43.61
2022-10-13T12:15:36.741Z,42.85
2022-10-13T12:16:51.834Z,41.49
2022-10-13T12:17:54.736Z,41.68
2022-10-13T12:19:08.906Z,41.57
2022-10-13T12:20:21.047Z,42.06
2022-10-13T12:21:24.860Z,42.09
2022-10-13T12:22:28.349Z,40.30
2022-10-13T12:23:32.504Z,40.37
2022-10-13T12:24:35.429Z,40.11
2022-10-13T12:25:38.504Z,40.10
2022-10-13T12:26:41.928Z,41.25
2022-10-13T12:27:48.955Z,41.60
2022-10-13T12:28:56.538Z,41.54
2022-10-13T12:30:00.606Z,40.89
2022-10-13T12:31:04.407Z,42.05
2022-10-13T12:32:27.629Z,40.81
2022-10-13T12:33:32.071Z,40.56
2022-10-13T12:34:43.567Z,39.71
2022-10-13T12:35:46.418Z,40.57
2022-10-13T12:36:59.568Z,39.87
2022-10-13T12:38:05.110Z,39.53
2022-10-13T12:39:12.122Z,39.16
2022-10-13T12:40:16.534Z,39.63
2022-10-13T12:41:27.022Z,41.66
2022-10-13T12:42:34.917Z,40.88
2022-10-13T12:43:38.540Z,40.66
2022-10-13T12:44:41.603Z,41.51
2022-10-13T12:45:44.552Z,42.51
2022-10-13T12:46:48.560Z,40.83
2022-10-13T12:47:52.612Z,40.07
2022-10-13T12:49:03.885Z,39.61
2022-10-13T12:50:25.026Z,39.80
2022-10-13T12:51:28.105Z,40.38
2022-10-13T12:52:31.607Z,37.80
2022-10-13T12:53:35.076Z,37.96
2022-10-13T12:54:39.535Z,38.97
2022-10-13T12:55:47.448Z,40.69
2022-10-13T12:56:55.281Z,40.05
2022-10-13T12:57:59.760Z,38.40
2022-10-13T12:59:03.712Z,38.14
2022-10-13T13:00:19.297Z,37.38
2022-10-13T13:01:25.285Z,38.87
2022-10-13T13:02:29.674Z,36.75
2022-10-13T13:03:32.943Z,37.32
2022-10-13T13:04:43.316Z,36.53
2022-10-13T13:05:51.623Z,36.18
2022-10-13T13:06:57.468Z,37.05
2022-10-13T13:08:00.779Z,37.26
2022-10-13T13:09:12.836Z,36.50
2022-10-13T13:10:17.543Z,36.18
2022-10-13T13:11:21.985Z,37.38
2022-10-13T13:12:27.169Z,36.47
2022-10-13T13:13:30.521Z,37.82
2022-10-13T13:14:43.425Z,38.06
2022-10-13T13:15:46.287Z,38.31
2022-10-13T13:17:57.334Z,38.72
2022-10-13T13:18:52.102Z,39.64
2022-10-13T13:19:57.409Z,38.55
2022-10-13T13:21:02.013Z,37.05
2022-10-13T13:22:05.891Z,36.38
2022-10-13T13:23:08.768Z,36.68
2022-10-13T13:24:28.095Z,37.69
2022-10-13T13:25:31.319Z,35.89
2022-10-13T13:26:35.460Z,35.89
2022-10-13T13:27:39.602Z,35.43
2022-10-13T13:28:47.138Z,35.45
2022-10-13T13:29:50.110Z,34.83
2022-10-13T13:30:53.032Z,35.58
2022-10-13T13:31:55.792Z,35.09
2022-10-13T13:32:58.746Z,35.88
2022-10-13T13:34:01.731Z,35.18
2022-10-13T13:35:05.103Z,35.56
2022-10-13T13:36:14.852Z,35.43
2022-10-13T13:37:38.499Z,35.55
2022-10-13T13:38:41.547Z,34.73
2022-10-13T13:39:44.338Z,34.46
2022-10-13T13:40:47.091Z,34.57
2022-10-13T13:41:49.994Z,35.18
2022-10-13T13:42:53.386Z,34.84
2022-10-13T13:43:56.782Z,35.09
2022-10-13T13:44:59.565Z,34.71
2022-10-13T13:46:04.021Z,35.46
2022-10-13T13:47:36.780Z,34.79
2022-10-13T13:48:39.591Z,34.28
2022-10-13T13:49:42.771Z,34.13
2022-10-13T13:50:45.549Z,34.07
2022-10-13T13:51:48.343Z,34.71
2022-10-13T13:52:51.334Z,34.53
2022-10-13T13:53:54.243Z,34.45
2022-10-13T13:54:57.190Z,33.75
2022-10-13T13:56:00.036Z,34.44
2022-10-13T13:57:02.978Z,34.21
2022-10-13T13:58:06.495Z,35.49
2022-10-13T13:59:09.363Z,34.73
2022-10-13T14:00:13.601Z,34.07
2022-10-13T14:01:16.793Z,33.61
2022-10-13T14:02:20.818Z,33.69
2022-10-13T14:03:23.778Z,34.18
2022-10-13T14:04:26.717Z,34.20
2022-10-13T14:05:29.879Z,34.57
2022-10-13T14:06:32.766Z,34.99
2022-10-13T14:07:35.712Z,34.98
2022-10-13T14:08:42.419Z,35.24
2022-10-13T14:09:46.481Z,35.79
2022-10-13T14:10:49.597Z,35.60
2022-10-13T14:11:53.940Z,36.00
2022-10-13T14:12:56.741Z,36.52
2022-10-13T14:14:02.316Z,36.97
2022-10-13T14:15:06.841Z,37.17